Nearby METAR Reports

 

EHGG - Groningen/Eelde, Netherlands
Distance from station: WSW 29km
Updated: 29/03/2020 03:55
Clear
Clear
 Wind from N
Wind: N 17 km/h
Temperature: 5°C
Wind Chill: 2°C
Dew Point: -1°C
Humidity: 66%
Barometer: 1026 hPa
Clouds: Clear
Visibility: 10 km
2020/03/29 01:55 EHGG 290155Z AUTO 36009KT 320V040 9999 NCD 05/M01 Q1026
ETNT - Wittmundhaven(Ga, Germany
Distance from station: ENE 57km
Updated: 29/03/2020 03:20

 Wind from NNE
Wind: NNE 26 km/h
Temperature: 5°C
Wind Chill: 1°C
Dew Point: -1°C
Humidity: 66%
Barometer: 1025 hPa
Visibility: 8 km
2020/03/29 01:20 ETNT 290120Z AUTO 02014KT 8000 // ////// 05/M01 Q1025 ///
 
ETWM - Meppen, Germany
Distance from station: SSE 66km
Updated: 29/03/2020 03:20

 Wind from N
Wind: N 11 km/h
Temperature: 4°C
Wind Chill: 1°C
Dew Point: 0°C
Humidity: 75%
Barometer: 1025 hPa
2020/03/29 01:20 ETWM 290120Z AUTO 35006KT //// // ////// 04/00 Q1025 ///
EHMA - Awg-1 Sea, Netherlands
Distance from station: WNW 70km
Updated: 29/03/2020 03:55
Few Clouds
Few Clouds
 Wind from NNE
Wind: NNE 48 km/h
Temperature: 7°C
Wind Chill: 2°C
Dew Point: -2°C
Humidity: 53%
Barometer: 1027 hPa
Clouds: Few Clouds
Visibility: 10 km
Cloud details: Few Clouds 823 m
2020/03/29 01:55 EHMA 290155Z AUTO 02026KT 350V060 9999 FEW027 07/M02 Q1027
 
EHLW - Leeuwarden Rnlaf, Netherlands
Distance from station: W 79km
Updated: 29/03/2020 03:55
Mostly cloudy
Mostly cloudy
 Wind from N
Wind: N 30 km/h
Temperature: 6°C
Wind Chill: 2°C
Dew Point: 2°C
Humidity: 76%
Barometer: 1027 hPa
Clouds: Mostly cloudy
Visibility: 10 km
Cloud details: Few Clouds 701 m
Mostly cloudy 792 m
Mostly cloudy 914 m
2020/03/29 01:55 EHLW 290155Z AUTO 36016KT 320V030 9999 FEW023 BKN026 BKN030 06/02 Q1027 BLU